Time;durP1;ratioP1;P1;durP2;ratioP2;P2;SDS_P1;SDS_P2;PMS_P1;PMS_P2;Temp;Humidity;BMP_temperature;BMP_pressure;BME280_temperature;BME280_humidity;BME280_pressure;Samples;Min_cycle;Max_cycle;Signal;HPM_P1;HPM_P2
2022/12/30 00:01:21;;;;;;;;;3.00;3.00;;;;;8.72;76.47;100703.97;5016758;28;45249;-58
2022/12/30 00:03:47;;;;;;;;;13.00;5.25;;;;;8.73;76.34;100708.38;5016433;28;45280;-57
2022/12/30 00:06:16;;;;;;;;;7.00;6.00;;;;;8.72;76.33;100705.75;5016638;28;45847;-57
2022/12/30 00:08:48;;;;;;;;;12.00;7.75;;;;;8.68;76.88;100699.75;5016598;28;45376;-56
2022/12/30 00:11:19;;;;;;;;;11.00;7.50;;;;;8.68;75.88;100707.69;5021188;28;45364;-57
2022/12/30 00:33:28;;;;;;;;;11.00;5.25;;;;;8.43;77.28;100685.91;5015883;28;45834;-57
2022/12/30 00:35:54;;;;;;;;;5.00;5.00;;;;;8.43;76.81;100692.06;5016142;28;45435;-57
2022/12/30 00:38:19;;;;;;;;;6.50;6.50;;;;;8.32;77.41;100673.09;5016095;28;45338;-57
2022/12/30 00:43:07;;;;;;;;;7.50;4.50;;;;;8.39;77.45;100686.97;5016148;28;45348;-57
2022/12/30 00:43:30;;;;;;;;;6.75;3.00;;;;;8.30;78.01;100664.38;5018715;28;45463;-57
2022/12/30 00:45:57;;;;;;;;;3.50;3.50;;;;;8.32;77.43;100675.75;5002852;28;45344;-57
2022/12/30 00:56:35;;;;;;;;;5.00;5.00;;;;;8.22;77.54;100667.38;5004056;28;45407;-57
2022/12/30 00:59:00;;;;;;;;;6.75;2.25;;;;;8.23;78.37;100679.69;5020042;28;45404;-57
2022/12/30 01:01:25;;;;;;;;;2.75;2.75;;;;;8.24;77.72;100681.41;5019674;28;45674;-57
2022/12/30 01:03:51;;;;;;;;;7.00;3.50;;;;;8.19;77.99;100667.50;5018567;28;61615;-56
2022/12/30 01:06:16;;;;;;;;;9.25;2.00;;;;;8.18;77.51;100664.91;5019447;28;45650;-58
2022/12/30 01:08:42;;;;;;;;;6.50;2.25;;;;;8.14;77.69;100666.84;5001505;28;45332;-57
2022/12/30 01:11:09;;;;;;;;;7.00;3.00;;;;;8.13;78.16;100661.63;5019444;28;45559;-57
2022/12/30 01:13:35;;;;;;;;;3.50;3.25;;;;;8.11;77.86;100660.84;5018988;28;46191;-57
2022/12/30 01:16:13;;;;;;;;;2.50;2.50;;;;;8.06;77.69;100639.81;5019348;28;45239;-57
2022/12/30 01:18:38;;;;;;;;;3.00;3.00;;;;;8.09;78.25;100655.59;5019081;28;45515;-56
2022/12/30 01:21:05;;;;;;;;;6.00;2.00;;;;;8.08;77.97;100653.03;5019272;28;45430;-56
2022/12/30 01:23:30;;;;;;;;;4.00;1.75;;;;;8.04;78.05;100654.06;5018862;28;45464;-58
2022/12/30 01:25:58;;;;;;;;;5.25;5.00;;;;;8.06;78.64;100650.44;5018677;28;45388;-57
2022/12/30 01:28:28;;;;;;;;;9.00;4.00;;;;;8.06;77.83;100649.56;5018895;28;45320;-57
2022/12/30 01:30:53;;;;;;;;;6.25;4.25;;;;;8.02;78.56;100640.91;4985125;28;45643;-57
2022/12/30 01:33:18;;;;;;;;;3.00;3.00;;;;;8.05;77.76;100642.56;5000732;28;48167;-56
2022/12/30 01:35:44;;;;;;;;;13.00;5.00;;;;;8.03;78.62;100636.47;5018850;28;45470;-57
2022/12/30 01:38:09;;;;;;;;;7.25;4.75;;;;;7.99;77.68;100636.63;5018983;28;45398;-57
2022/12/30 01:40:39;;;;;;;;;3.25;3.25;;;;;7.99;78.72;100644.56;5019168;28;45368;-57
2022/12/30 01:43:10;;;;;;;;;5.00;3.50;;;;;8.00;78.70;100645.41;5018780;28;45280;-62
2022/12/30 01:45:35;;;;;;;;;4.50;3.00;;;;;7.94;78.24;100645.66;5018483;28;45376;-57
2022/12/30 01:48:11;;;;;;;;;6.00;5.25;;;;;7.97;78.35;100646.41;5018971;28;45430;-57
2022/12/30 01:51:00;;;;;;;;;5.00;2.00;;;;;7.97;78.50;100645.56;5018865;28;45391;-57
2022/12/30 01:53:32;;;;;;;;;2.00;2.00;;;;;7.97;78.15;100645.56;5018341;28;46547;-56
2022/12/30 01:56:12;;;;;;;;;2.25;2.25;;;;;7.94;78.10;100646.56;5018056;28;45455;-58
2022/12/30 01:58:45;;;;;;;;;2.00;2.00;;;;;7.90;78.89;100636.16;5018467;28;45419;-57
2022/12/30 02:01:11;;;;;;;;;3.25;3.25;;;;;7.88;78.76;100641.53;5018414;28;45620;-56
2022/12/30 02:03:46;;;;;;;;;2.75;2.75;;;;;7.84;78.71;100634.66;5000475;28;45967;-58
2022/12/30 02:06:16;;;;;;;;;5.50;3.25;;;;;7.87;78.69;100638.94;5018294;28;45216;-56
2022/12/30 02:08:41;;;;;;;;;3.25;3.25;;;;;7.88;78.47;100641.53;5018394;28;45479;-57
2022/12/30 02:11:07;;;;;;;;;3.50;2.50;;;;;7.89;79.13;100647.69;5022553;28;45387;-55
2022/12/30 02:13:32;;;;;;;;;6.00;3.25;;;;;7.87;79.36;100633.66;5038590;28;45466;-57
2022/12/30 02:16:08;;;;;;;;;4.00;4.00;;;;;7.87;79.32;100645.09;5039077;28;45415;-58
2022/12/30 02:19:32;;;;;;;;;3.25;3.25;;;;;7.83;78.88;100638.22;5039156;28;45603;-56
2022/12/30 02:22:20;;;;;;;;;6.75;5.25;;;;;7.83;79.35;100640.03;4949837;28;45410;-56
2022/12/30 02:25:06;;;;;;;;;6.00;6.00;;;;;7.75;79.00;100635.03;5038146;28;46445;-57
2022/12/30 02:27:34;;;;;;;;;4.75;2.75;;;;;7.75;78.97;100634.19;4965017;28;45448;-57
2022/12/30 02:30:06;;;;;;;;;6.00;5.00;;;;;7.75;79.65;100640.34;4998760;28;45408;-57
2022/12/30 02:32:59;;;;;;;;;6.50;3.25;;;;;7.71;79.02;100630.81;4999718;28;45500;-57
2022/12/30 02:35:36;;;;;;;;;7.25;5.75;;;;;7.75;78.91;100629.75;4982611;28;47544;-57
2022/12/30 02:38:17;;;;;;;;;9.00;6.25;;;;;7.72;79.79;100623.75;4998293;28;45265;-56
2022/12/30 02:46:28;;;;;;;;;14.25;6.25;;;;;7.61;80.33;100613.63;4983031;28;45437;-57
2022/12/30 02:48:57;;;;;;;;;9.00;6.75;;;;;7.57;80.75;100618.19;4997890;28;45400;-57
2022/12/30 02:54:09;;;;;;;;;12.00;8.75;;;;;7.58;81.37;100614.63;4997967;28;45267;-57
2022/12/30 02:56:34;;;;;;;;;10.00;9.00;;;;;7.56;80.59;100603.22;4998262;28;46187;-66
2022/12/30 03:05:13;;;;;;;;;12.50;10.00;;;;;7.58;81.63;100595.22;4998711;28;45307;-58
2022/12/30 03:07:57;;;;;;;;;11.75;9.00;;;;;7.60;81.52;100591.59;4998115;28;47140;-58
2022/12/30 03:13:21;;;;;;;;;11.25;8.50;;;;;7.62;81.85;100587.06;4997887;28;45374;-57
2022/12/30 03:16:07;;;;;;;;;10.00;8.25;;;;;7.65;81.39;100586.94;4998255;28;45579;-57
2022/12/30 03:18:33;;;;;;;;;10.25;9.00;;;;;7.67;81.30;100578.91;4997768;28;47264;-56
2022/12/30 03:21:01;;;;;;;;;12.50;8.50;;;;;7.71;82.37;100564.63;4997813;28;45650;-58
2022/12/30 03:29:01;;;;;;;;;13.00;9.25;;;;;7.81;81.68;100554.47;4997140;28;45449;-57
2022/12/30 03:31:26;;;;;;;;;9.25;8.50;;;;;7.73;80.96;100536.31;4997179;28;45297;-57
2022/12/30 03:33:52;;;;;;;;;9.00;8.50;;;;;7.82;81.39;100564.16;4997341;28;45462;-56
2022/12/30 03:36:23;;;;;;;;;13.00;10.00;;;;;7.83;82.93;100571.19;4997334;28;45426;-56
2022/12/30 03:38:56;;;;;;;;;11.25;9.25;;;;;7.75;82.11;100552.97;4979650;28;45385;-58
2022/12/30 03:41:23;;;;;;;;;13.00;8.50;;;;;7.79;82.90;100553.69;4997211;28;45401;-58
2022/12/30 03:43:49;;;;;;;;;9.00;9.00;;;;;7.84;82.29;100563.16;4997300;28;45460;-56
2022/12/30 03:46:17;;;;;;;;;9.00;7.25;;;;;7.86;82.32;100552.50;4997051;28;45569;-59
2022/12/30 03:48:43;;;;;;;;;5.00;5.00;;;;;7.89;82.85;100539.13;4996639;28;45314;-58
2022/12/30 03:51:08;;;;;;;;;12.50;9.75;;;;;7.93;82.26;100548.63;4997184;28;45238;-57
2022/12/30 03:53:33;;;;;;;;;11.75;10.25;;;;;7.87;81.97;100533.88;4997070;28;45398;-57
2022/12/30 03:55:59;;;;;;;;;10.25;10.25;;;;;7.94;82.36;100542.41;4997245;28;45540;-58
2022/12/30 03:58:24;;;;;;;;;10.25;9.50;;;;;7.92;82.42;100525.72;4996681;28;45328;-62
2022/12/30 04:00:50;;;;;;;;;12.00;9.50;;;;;7.95;82.36;100520.31;4996049;28;65467;-57
2022/12/30 04:03:16;;;;;;;;;16.25;10.25;;;;;7.99;83.13;100517.44;4996608;28;45242;-61
2022/12/30 04:05:41;;;;;;;;;9.00;9.00;;;;;8.04;82.23;100511.91;4997596;28;45686;-57
2022/12/30 04:08:07;;;;;;;;;10.75;6.25;;;;;8.02;82.13;100516.44;4998029;28;46089;-57
2022/12/30 04:10:32;;;;;;;;;9.00;7.25;;;;;7.97;81.61;100498.13;4997707;28;45276;-56
2022/12/30 04:12:58;;;;;;;;;9.00;6.50;;;;;7.97;81.19;100497.25;5016855;28;45413;-56
2022/12/30 04:15:23;;;;;;;;;5.25;5.25;;;;;7.92;82.17;100494.81;4999676;28;45594;-57
2022/12/30 04:17:48;;;;;;;;;8.25;8.25;;;;;7.91;82.50;100489.59;5016128;28;47103;-57
2022/12/30 04:20:13;;;;;;;;;5.25;4.00;;;;;7.92;81.85;100502.75;5016817;28;58437;-58
2022/12/30 04:22:39;;;;;;;;;7.25;5.50;;;;;7.90;83.26;100495.81;4999778;28;45486;-58
2022/12/30 04:25:05;;;;;;;;;5.25;5.25;;;;;7.88;83.07;100493.25;5018000;28;45499;-57
2022/12/30 04:27:30;;;;;;;;;16.75;10.00;;;;;7.83;83.25;100489.09;5036232;28;45481;-58
2022/12/30 04:29:55;;;;;;;;;10.00;6.00;;;;;7.90;82.66;100509.06;5035919;28;45465;-57
2022/12/30 04:32:20;;;;;;;;;6.50;5.00;;;;;7.91;82.75;100492.22;5036193;28;45367;-57
2022/12/30 04:34:46;;;;;;;;;8.50;6.00;;;;;7.86;83.16;100488.94;5036591;28;45550;-56
2022/12/30 04:37:11;;;;;;;;;8.25;7.75;;;;;7.83;82.09;100497.03;5036862;28;46293;-57
2022/12/30 04:39:37;;;;;;;;;11.25;7.25;;;;;7.80;83.59;100505.09;5036784;28;45408;-58
2022/12/30 04:42:02;;;;;;;;;15.75;9.00;;;;;7.83;83.09;100505.00;5036794;28;45502;-58
2022/12/30 04:44:27;;;;;;;;;6.50;6.50;;;;;7.83;83.11;100489.09;5036593;28;45467;-59
2022/12/30 04:46:53;;;;;;;;;9.00;7.50;;;;;7.84;83.60;100488.16;5035885;28;46108;-57
2022/12/30 04:49:18;;;;;;;;;12.75;6.75;;;;;7.83;83.45;100474.06;5035972;28;45388;-56
2022/12/30 04:51:43;;;;;;;;;12.25;6.00;;;;;7.85;83.66;100479.28;5036424;28;45359;-56
2022/12/30 04:54:09;;;;;;;;;5.50;5.50;;;;;7.87;83.98;100482.72;5036319;28;45551;-56
2022/12/30 04:56:34;;;;;;;;;5.25;3.75;;;;;7.83;84.83;100466.13;5035636;28;46307;-56
2022/12/30 04:58:59;;;;;;;;;9.75;8.75;;;;;7.90;85.07;100469.34;5018230;28;45347;-58
2022/12/30 05:01:26;;;;;;;;;6.50;6.00;;;;;7.90;84.27;100458.75;5034748;28;54169;-55
2022/12/30 05:03:51;;;;;;;;;9.50;7.50;;;;;7.92;84.33;100451.59;5036401;28;45226;-58
2022/12/30 05:06:17;;;;;;;;;13.25;7.00;;;;;7.92;84.27;100447.13;5036256;28;46274;-57
2022/12/30 05:08:42;;;;;;;;;8.50;5.50;;;;;7.92;84.80;100447.13;5036349;28;45309;-57
2022/12/30 05:11:08;;;;;;;;;7.25;5.50;;;;;7.97;85.00;100446.94;5035265;28;45888;-57
2022/12/30 05:13:33;;;;;;;;;9.00;9.00;;;;;7.99;84.70;100437.13;5020809;28;45589;-57
2022/12/30 05:15:59;;;;;;;;;6.00;6.00;;;;;7.88;84.31;100412.94;5032716;28;45456;-57
2022/12/30 05:18:24;;;;;;;;;9.00;6.25;;;;;8.01;84.44;100414.06;5014745;28;45397;-56
2022/12/30 05:20:49;;;;;;;;;12.50;9.50;;;;;7.95;85.00;100394.06;5023753;28;45403;-56
2022/12/30 05:26:14;;;;;;;;;10.25;6.25;;;;;8.03;84.50;100398.97;5035209;28;45313;-57
2022/12/30 05:28:39;;;;;;;;;7.25;7.25;;;;;8.07;85.52;100397.03;5033150;28;45327;-56
2022/12/30 05:31:05;;;;;;;;;7.25;7.25;;;;;8.10;84.97;100400.41;5018970;28;45188;-56
2022/12/30 05:33:30;;;;;;;;;5.75;5.75;;;;;8.08;85.45;100404.06;5001414;28;45249;-56
2022/12/30 05:35:55;;;;;;;;;8.50;6.00;;;;;8.09;85.10;100400.47;5000982;28;46528;-57
2022/12/30 05:38:21;;;;;;;;;6.50;2.75;;;;;8.05;85.80;100389.16;5018904;28;45321;-56
2022/12/30 05:40:46;;;;;;;;;9.25;5.00;;;;;8.13;85.52;100381.69;5019276;28;45175;-58
2022/12/30 05:43:12;;;;;;;;;9.50;5.25;;;;;8.18;84.73;100386.75;5019307;28;45244;-57
2022/12/30 05:45:37;;;;;;;;;6.50;6.50;;;;;8.17;84.47;100366.50;5001848;28;45986;-58
2022/12/30 05:48:02;;;;;;;;;8.75;6.25;;;;;8.25;84.28;100367.84;5038824;28;45229;-57
2022/12/30 05:50:28;;;;;;;;;5.50;2.25;;;;;8.26;84.58;100366.06;5038885;28;45246;-57
2022/12/30 05:52:53;;;;;;;;;6.75;5.25;;;;;8.34;85.25;100352.44;5038826;28;45590;-57
2022/12/30 05:55:19;;;;;;;;;9.50;6.00;;;;;8.37;84.75;100341.72;5038319;28;46211;-56
2022/12/30 05:57:44;;;;;;;;;5.75;3.00;;;;;8.39;84.35;100339.84;5020295;28;48735;-57
2022/12/30 06:00:10;;;;;;;;;4.50;4.50;;;;;8.43;84.11;100326.34;5038724;28;45400;-57
2022/12/30 06:02:35;;;;;;;;;4.75;3.50;;;;;8.48;83.64;100328.78;5039087;28;45685;-57
2022/12/30 06:05:01;;;;;;;;;6.75;3.00;;;;;8.48;84.49;100324.31;5038443;28;45486;-57
2022/12/30 06:07:26;;;;;;;;;5.25;5.25;;;;;8.47;84.37;100312.00;5038449;28;45379;-58
2022/12/30 06:09:51;;;;;;;;;5.50;5.00;;;;;8.53;82.99;100310.81;5038697;28;45263;-56
2022/12/30 06:12:17;;;;;;;;;6.00;3.00;;;;;8.52;83.75;100307.31;5038619;28;45392;-57
2022/12/30 06:14:42;;;;;;;;;10.00;3.00;;;;;8.64;83.47;100304.97;5038367;28;46122;-56
2022/12/30 06:17:07;;;;;;;;;5.50;4.00;;;;;8.62;83.73;100301.53;5038219;28;45436;-57
2022/12/30 06:19:33;;;;;;;;;6.75;5.00;;;;;8.67;83.22;100287.09;5038129;28;45316;-58
2022/12/30 06:21:58;;;;;;;;;2.75;2.75;;;;;8.72;82.80;100287.69;5037969;28;45807;-57
2022/12/30 06:24:23;;;;;;;;;6.25;4.50;;;;;8.75;83.42;100281.41;5038085;28;46057;-58
2022/12/30 06:26:49;;;;;;;;;5.00;3.00;;;;;8.79;83.00;100277.63;5037896;28;45682;-58
2022/12/30 06:29:14;;;;;;;;;2.00;2.00;;;;;8.80;83.36;100269.59;5020395;28;45349;-57
2022/12/30 06:31:40;;;;;;;;;2.50;1.50;;;;;8.84;83.05;100271.13;5037959;28;45590;-57
2022/12/30 06:34:05;;;;;;;;;5.00;2.00;;;;;8.85;83.53;100258.72;5037756;28;45280;-57
2022/12/30 06:36:30;;;;;;;;;7.50;4.50;;;;;8.91;82.76;100252.25;5037553;28;46078;-57
2022/12/30 06:38:56;;;;;;;;;3.00;3.00;;;;;8.91;82.69;100258.41;5037831;28;45343;-57
2022/12/30 06:41:21;;;;;;;;;5.50;3.50;;;;;8.93;82.68;100239.75;5037719;28;45439;-57
2022/12/30 06:43:46;;;;;;;;;4.00;2.00;;;;;8.93;82.90;100237.97;5037829;28;46281;-58
2022/12/30 06:46:11;;;;;;;;;7.00;5.00;;;;;8.96;83.45;100224.53;5037210;28;45293;-57
2022/12/30 06:48:37;;;;;;;;;6.00;4.00;;;;;9.01;83.67;100219.00;5037248;28;54103;-57
2022/12/30 06:51:03;;;;;;;;;1.75;1.75;;;;;9.00;82.83;100209.31;5037849;28;45523;-57
2022/12/30 06:53:28;;;;;;;;;1.00;1.00;;;;;9.02;83.14;100215.41;5037255;28;47190;-57
2022/12/30 06:55:54;;;;;;;;;5.50;2.25;;;;;9.03;82.31;100212.66;5036326;28;45591;-56
2022/12/30 06:58:19;;;;;;;;;5.25;2.00;;;;;9.03;82.99;100203.84;5037537;28;45324;-56
2022/12/30 07:00:45;;;;;;;;;2.00;2.00;;;;;8.99;82.27;100207.63;5037991;28;45544;-58
2022/12/30 07:03:11;;;;;;;;;2.00;2.00;;;;;9.02;82.57;100195.03;5037442;28;46201;-58
2022/12/30 07:05:37;;;;;;;;;1.50;1.25;;;;;9.07;82.24;100189.44;5037281;28;45451;-57
2022/12/30 07:08:02;;;;;;;;;2.00;2.00;;;;;9.09;82.31;100199.03;5019276;28;45309;-57
2022/12/30 07:10:28;;;;;;;;;2.25;1.75;;;;;9.13;82.42;100171.41;5019764;28;45713;-57
2022/12/30 07:12:53;;;;;;;;;3.50;2.00;;;;;9.18;82.59;100176.44;5018317;28;45491;-57
2022/12/30 07:15:19;;;;;;;;;4.50;2.25;;;;;9.17;81.64;100164.13;5017586;28;45431;-56
2022/12/30 07:17:44;;;;;;;;;1.75;1.00;;;;;9.24;82.41;100160.16;5017255;28;45307;-57
2022/12/30 07:20:12;;;;;;;;;3.00;1.00;;;;;9.27;82.05;100144.09;5017402;28;45222;-56
2022/12/30 07:22:38;;;;;;;;;4.00;2.00;;;;;9.29;82.13;100128.94;5016166;28;46191;-56
2022/12/30 07:25:04;;;;;;;;;1.00;1.00;;;;;9.32;81.18;100138.50;5016879;28;45285;-56
2022/12/30 07:27:29;;;;;;;;;1.00;1.00;;;;;9.30;80.89;100127.97;5017260;28;45380;-58
2022/12/30 07:29:54;;;;;;;;;3.50;3.50;;;;;9.32;81.81;100139.34;5017163;28;45519;-58
2022/12/30 07:32:19;;;;;;;;;1.00;1.00;;;;;9.37;81.88;100129.31;4998594;28;46834;-57
2022/12/30 07:34:45;;;;;;;;;2.00;2.00;;;;;9.41;80.50;100114.09;5016876;28;45304;-56
2022/12/30 07:37:10;;;;;;;;;2.00;2.00;;;;;9.43;80.58;100125.47;5016838;28;45344;-57
2022/12/30 07:39:36;;;;;;;;;1.50;1.50;;;;;9.37;80.92;100097.47;5017221;28;45305;-57
2022/12/30 07:42:01;;;;;;;;;3.75;2.00;;;;;9.49;80.78;100103.00;5016401;28;45930;-58
2022/12/30 07:44:26;;;;;;;;;1.00;1.00;;;;;9.50;80.47;100102.06;5016800;28;45371;-55
2022/12/30 07:46:52;;;;;;;;;4.50;1.75;;;;;9.51;79.94;100090.53;5017009;28;45386;-57
2022/12/30 07:49:17;;;;;;;;;3.25;2.00;;;;;9.57;79.68;100098.09;5017067;28;45482;-58
2022/12/30 07:51:43;;;;;;;;;1.75;1.50;;;;;9.58;79.86;100111.28;5015861;28;45727;-57
2022/12/30 07:54:09;;;;;;;;;2.25;2.00;;;;;9.60;79.35;100104.06;5017486;28;45394;-57
2022/12/30 07:56:34;;;;;;;;;0.25;0.25;;;;;9.66;79.31;100109.03;5018207;28;45233;-57
2022/12/30 07:59:02;;;;;;;;;1.25;1.00;;;;;9.66;79.78;100110.84;5017589;28;45502;-57
2022/12/30 08:01:28;;;;;;;;;0.75;0.00;;;;;9.68;79.59;100103.63;5016467;28;45312;-57
2022/12/30 08:03:53;;;;;;;;;4.25;3.00;;;;;9.68;79.13;100103.63;5016882;28;45246;-57
2022/12/30 08:06:18;;;;;;;;;5.00;2.67;;;;;9.71;79.62;100100.78;5016402;28;45253;-57
2022/12/30 08:08:45;;;;;;;;;3.00;1.67;;;;;9.74;78.89;100103.25;5016980;28;45885;-58
2022/12/30 08:11:12;;;;;;;;;1.00;1.00;;;;;9.74;78.69;100089.97;4998606;28;47846;-59
2022/12/30 08:13:40;;;;;;;;;2.00;1.00;;;;;9.77;78.19;100087.16;5015818;28;45489;-58
2022/12/30 08:16:07;;;;;;;;;5.33;3.00;;;;;9.75;78.54;100081.06;5016453;28;45221;-57
2022/12/30 08:18:33;;;;;;;;;1.25;1.25;;;;;9.79;78.76;100079.09;5016349;28;45182;-57
2022/12/30 08:21:03;;;;;;;;;2.00;2.00;;;;;9.75;78.00;100054.50;5015721;28;46598;-56
2022/12/30 08:23:29;;;;;;;;;1.00;1.00;;;;;9.79;78.79;100048.06;5014850;28;45372;-56
2022/12/30 08:25:55;;;;;;;;;1.00;1.00;;;;;9.82;78.40;100060.31;5016102;28;45367;-57
2022/12/30 08:28:20;;;;;;;;;1.00;1.00;;;;;9.77;79.34;100049.97;5016782;28;45228;-56
2022/12/30 08:30:45;;;;;;;;;0.33;0.33;;;;;9.77;80.00;100052.63;5016129;28;46275;-57
2022/12/30 08:33:11;;;;;;;;;2.67;1.00;;;;;9.77;79.31;100057.09;5014843;28;45241;-56
2022/12/30 08:35:36;;;;;;;;;0.00;0.00;;;;;9.70;80.81;100056.59;5016857;28;45270;-57
2022/12/30 08:38:01;;;;;;;;;5.25;2.00;;;;;9.66;80.97;100045.31;5016195;28;45577;-58
2022/12/30 08:40:27;;;;;;;;;1.50;1.50;;;;;9.57;80.84;100039.69;5014301;28;45923;-57
2022/12/30 08:42:52;;;;;;;;;4.25;1.00;;;;;9.54;81.86;100034.59;5016276;28;45368;-57
2022/12/30 08:45:17;;;;;;;;;2.00;2.00;;;;;9.41;81.52;100021.19;5016233;28;45424;-57
2022/12/30 08:47:43;;;;;;;;;1.67;1.67;;;;;9.47;84.30;100018.16;5015506;28;45646;-61
2022/12/30 08:50:08;;;;;;;;;1.00;1.00;;;;;9.44;85.47;100013.91;5017398;28;46190;-57
2022/12/30 08:52:36;;;;;;;;;4.33;2.67;;;;;9.41;85.36;100014.09;5016400;28;45465;-57
2022/12/30 08:55:01;;;;;;;;;1.00;1.00;;;;;9.35;82.62;100001.16;5015873;28;45329;-57
2022/12/30 08:57:27;;;;;;;;;1.67;1.33;;;;;9.34;84.00;100010.09;5016355;28;45473;-56
2022/12/30 08:59:52;;;;;;;;;3.00;2.00;;;;;9.33;85.33;99994.25;5015930;28;45779;-58
2022/12/30 09:02:17;;;;;;;;;2.67;2.67;;;;;9.23;85.19;99987.78;5014494;28;45477;-58
2022/12/30 09:04:43;;;;;;;;;7.25;3.50;;;;;9.24;86.16;99984.19;5018727;28;45368;-57
2022/12/30 09:07:08;;;;;;;;;1.00;1.00;;;;;9.20;87.60;99986.19;5019434;28;45373;-57
2022/12/30 09:09:34;;;;;;;;;3.00;1.00;;;;;9.14;86.12;99968.00;5018879;28;46493;-58
2022/12/30 09:11:59;;;;;;;;;2.00;2.00;;;;;9.09;87.53;99972.69;5019091;28;45414;-57
2022/12/30 09:14:24;;;;;;;;;2.25;2.25;;;;;9.06;87.64;99947.22;5018587;28;45366;-57
2022/12/30 09:16:50;;;;;;;;;2.75;2.75;;;;;9.03;89.76;99944.75;5019231;28;45499;-56
2022/12/30 09:19:17;;;;;;;;;3.00;3.00;;;;;9.00;90.36;99936.13;5018990;28;45322;-56
2022/12/30 09:21:42;;;;;;;;;6.50;3.00;;;;;9.02;90.86;99931.59;5019951;28;45359;-55
2022/12/30 09:24:09;;;;;;;;;5.75;3.00;;;;;9.02;90.68;99931.59;5019856;28;45265;-58
2022/12/30 09:26:35;;;;;;;;;3.00;2.25;;;;;9.01;89.40;99929.88;5020150;28;45554;-57
2022/12/30 09:29:00;;;;;;;;;2.00;2.00;;;;;9.01;88.67;99932.53;5019386;28;45410;-57
2022/12/30 09:31:26;;;;;;;;;3.00;3.00;;;;;8.98;90.08;99924.75;5019475;28;45435;-56
2022/12/30 09:33:52;;;;;;;;;4.25;2.00;;;;;9.03;90.14;99933.28;5019243;28;45355;-57
2022/12/30 09:36:18;;;;;;;;;2.50;2.00;;;;;9.03;90.09;99928.00;5019023;28;45375;-58
2022/12/30 09:38:44;;;;;;;;;2.00;2.00;;;;;9.02;88.95;99910.38;5018404;28;45358;-58
2022/12/30 09:44:44;;;;;;;;;2.50;2.25;;;;;9.02;90.29;99915.69;4918962;28;45522;-57
2022/12/30 09:47:13;;;;;;;;;4.50;3.50;;;;;9.02;90.68;99899.75;4919458;28;45419;-57
2022/12/30 09:49:49;;;;;;;;;2.75;2.00;;;;;9.03;90.86;99896.16;4987494;28;46192;-58
2022/12/30 09:52:27;;;;;;;;;1.00;1.00;;;;;9.01;89.98;99892.75;5017740;28;45521;-57
2022/12/30 09:55:09;;;;;;;;;1.00;1.00;;;;;9.04;90.14;99889.91;5000541;28;45452;-55
2022/12/30 09:57:36;;;;;;;;;1.50;1.50;;;;;9.07;90.65;99892.38;5018403;28;45501;-56
2022/12/30 10:00:18;;;;;;;;;2.25;2.25;;;;;9.09;89.90;99890.47;4983508;28;46677;-56
2022/12/30 10:02:43;;;;;;;;;2.25;2.25;;;;;9.13;90.82;99873.44;5018347;28;45341;-56
2022/12/30 10:05:13;;;;;;;;;5.00;2.75;;;;;9.14;89.11;99865.38;5018251;28;45581;-56
2022/12/30 10:08:09;;;;;;;;;2.33;2.00;;;;;9.13;91.55;99854.88;5018462;28;45606;-56
2022/12/30 10:10:41;;;;;;;;;2.33;2.33;;;;;9.11;91.74;99851.44;5000088;28;46066;-56
2022/12/30 10:13:14;;;;;;;;;2.25;1.75;;;;;9.16;90.70;99833.44;5037816;28;45426;-58
2022/12/30 10:15:53;;;;;;;;;1.00;1.00;;;;;9.14;90.33;99827.41;5037396;28;45452;-56
2022/12/30 10:18:40;;;;;;;;;2.00;2.00;;;;;9.16;90.23;99822.84;5038219;28;45383;-57
2022/12/30 10:21:33;;;;;;;;;1.00;1.00;;;;;9.15;91.72;99810.53;5037890;28;45214;-62
2022/12/30 10:24:15;;;;;;;;;0.75;0.75;;;;;9.21;92.41;99793.34;5038357;28;45458;-57
2022/12/30 10:26:50;;;;;;;;;1.75;1.75;;;;;9.22;93.33;99787.94;5038066;28;45492;-56
2022/12/30 10:29:20;;;;;;;;;3.00;2.00;;;;;9.25;92.15;99779.81;5036824;28;45486;-57
2022/12/30 10:31:47;;;;;;;;;5.33;2.00;;;;;9.30;92.24;99777.72;5036328;28;45306;-57
2022/12/30 10:34:16;;;;;;;;;2.00;2.00;;;;;9.34;92.87;99791.63;5036555;28;45453;-57
2022/12/30 10:37:02;;;;;;;;;1.00;1.00;;;;;9.38;92.17;99796.66;5019926;28;45502;-56
2022/12/30 10:39:37;;;;;;;;;0.25;0.25;;;;;9.35;93.19;99783.56;5037961;28;45342;-56
2022/12/30 10:42:18;;;;;;;;;0.50;0.50;;;;;9.47;92.64;99773.97;5019822;28;48286;-56
2022/12/30 10:44:58;;;;;;;;;2.75;1.00;;;;;9.48;93.44;99774.81;5037659;28;45201;-56
2022/12/30 10:47:36;;;;;;;;;1.25;1.25;;;;;9.57;94.49;99780.41;5037410;28;45307;-57
2022/12/30 10:50:15;;;;;;;;;0.00;0.00;;;;;9.60;93.27;99776.69;5038254;28;45418;-56
2022/12/30 10:52:41;;;;;;;;;2.00;0.00;;;;;9.72;92.53;99741.38;5037281;28;45390;-56
2022/12/30 10:55:24;;;;;;;;;2.00;2.00;;;;;9.80;94.62;99754.16;5036541;28;45308;-57
2022/12/30 10:57:56;;;;;;;;;2.00;2.00;;;;;9.80;94.82;99744.38;5037349;28;45446;-56
2022/12/30 11:00:22;;;;;;;;;1.00;1.00;;;;;9.95;92.72;99743.34;5037718;28;45479;-57
2022/12/30 11:03:01;;;;;;;;;1.00;1.00;;;;;9.98;92.75;99744.97;5037144;28;47022;-57
2022/12/30 11:05:39;;;;;;;;;4.33;0.33;;;;;10.08;92.47;99716.81;5036822;28;45391;-57
2022/12/30 11:08:21;;;;;;;;;0.00;0.00;;;;;10.19;92.05;99692.19;5037383;28;45403;-56
2022/12/30 11:11:06;;;;;;;;;0.00;0.00;;;;;10.23;90.75;99689.22;5035140;28;45580;-57
2022/12/30 11:16:42;;;;;;;;;1.00;1.00;;;;;10.34;91.82;99707.94;5017152;28;45478;-56
2022/12/30 11:19:25;;;;;;;;;1.00;0.00;;;;;10.39;91.66;99678.38;5013169;28;45493;-57
2022/12/30 11:21:54;;;;;;;;;1.00;1.00;;;;;10.47;91.35;99685.84;5017495;28;45248;-57
2022/12/30 11:24:21;;;;;;;;;0.00;0.00;;;;;10.48;91.55;99688.38;5017239;28;45823;-57
2022/12/30 11:26:49;;;;;;;;;0.00;0.00;;;;;10.57;92.12;99706.34;5016049;28;45436;-57
2022/12/30 11:29:20;;;;;;;;;1.67;0.67;;;;;10.62;91.67;99696.22;4999366;28;45418;-56
2022/12/30 11:31:51;;;;;;;;;1.00;1.00;;;;;10.68;91.76;99662.19;5016971;28;45544;-57
2022/12/30 11:34:33;;;;;;;;;1.00;1.00;;;;;10.79;91.21;99668.44;5016907;28;46396;-56
2022/12/30 11:36:59;;;;;;;;;0.00;0.00;;;;;10.86;91.21;99676.84;5016576;28;45340;-56
2022/12/30 11:39:31;;;;;;;;;0.33;0.33;;;;;10.98;91.79;99677.78;4999162;28;45262;-56
2022/12/30 11:42:00;;;;;;;;;1.00;1.00;;;;;11.04;91.45;99659.53;5016994;28;45426;-58
2022/12/30 11:44:32;;;;;;;;;0.00;0.00;;;;;11.08;91.88;99665.50;5016708;28;45317;-58
2022/12/30 11:47:08;;;;;;;;;0.33;0.00;;;;;11.07;89.85;99654.03;5016890;28;45388;-57
2022/12/30 11:49:37;;;;;;;;;0.67;0.00;;;;;11.06;91.77;99665.59;4999657;28;45543;-57
2022/12/30 11:52:02;;;;;;;;;1.00;0.00;;;;;11.15;91.55;99651.63;4999550;28;45457;-57
2022/12/30 11:54:32;;;;;;;;;0.33;0.00;;;;;11.17;91.12;99660.34;5016551;28;45314;-57
2022/12/30 11:57:05;;;;;;;;;0.67;0.67;;;;;11.22;91.49;99641.41;5016017;28;45594;-57
2022/12/30 11:59:37;;;;;;;;;2.00;0.00;;;;;11.27;91.08;99644.56;5016742;28;45443;-57
2022/12/30 12:02:16;;;;;;;;;0.00;0.00;;;;;11.19;91.58;99629.13;5017297;28;45265;-58
2022/12/30 12:04:42;;;;;;;;;0.00;0.00;;;;;11.30;92.17;99644.31;5016397;28;46494;-57
2022/12/30 12:07:16;;;;;;;;;0.00;0.00;;;;;11.42;91.18;99639.91;5016278;28;45284;-56
2022/12/30 12:10:00;;;;;;;;;0.33;0.33;;;;;11.50;91.07;99622.41;5016460;28;45829;-58
2022/12/30 12:12:33;;;;;;;;;0.67;0.67;;;;;11.59;90.97;99631.53;5009664;28;45566;-56
2022/12/30 12:15:18;;;;;;;;;1.00;1.00;;;;;11.63;91.20;99625.00;5016005;28;46302;-56
2022/12/30 12:17:59;;;;;;;;;0.00;0.00;;;;;11.62;91.33;99633.94;5016481;28;46126;-56
2022/12/30 12:20:41;;;;;;;;;0.67;0.67;;;;;11.73;90.95;99633.97;5016903;28;45284;-57
2022/12/30 12:23:38;;;;;;;;;0.33;0.33;;;;;11.78;91.12;99634.47;5016970;28;45369;-56
2022/12/30 12:26:16;;;;;;;;;0.00;0.00;;;;;11.82;91.50;99635.97;4998571;28;46185;-55
2022/12/30 12:28:43;;;;;;;;;0.00;0.00;;;;;11.86;91.12;99625.09;5016279;28;45352;-58
2022/12/30 12:31:30;;;;;;;;;0.00;0.00;;;;;11.89;91.31;99622.19;4998598;28;45311;-58
2022/12/30 12:33:56;;;;;;;;;0.00;0.00;;;;;11.96;91.32;99626.06;5016588;28;45531;-59
2022/12/30 12:36:52;;;;;;;;;0.00;0.00;;;;;11.98;92.66;99619.66;5016339;28;46287;-58
2022/12/30 12:39:54;;;;;;;;;0.00;0.00;;;;;12.00;92.05;99619.53;5015108;28;45497;-56
2022/12/30 12:42:24;;;;;;;;;0.00;0.00;;;;;12.07;92.63;99618.09;5016238;28;45293;-58
2022/12/30 12:45:08;;;;;;;;;1.00;1.00;;;;;12.06;92.12;99600.41;5016277;28;45716;-57